sensor_id;sensor_type;location;lat;lon;timestamp;P1;durP1;ratioP1;P2;durP2;ratioP2
8421;SDS011;4248;48.196;10.924;2024-02-21T00:00:52;6.87;;;2.30;;
8421;SDS011;4248;48.196;10.924;2024-02-21T00:03:18;7.17;;;2.30;;
8421;SDS011;4248;48.196;10.924;2024-02-21T00:05:44;7.70;;;2.63;;
8421;SDS011;4248;48.196;10.924;2024-02-21T00:08:10;4.80;;;2.10;;
8421;SDS011;4248;48.196;10.924;2024-02-21T00:10:36;11.70;;;2.73;;
8421;SDS011;4248;48.196;10.924;2024-02-21T00:13:01;7.40;;;2.80;;
8421;SDS011;4248;48.196;10.924;2024-02-21T00:15:28;8.90;;;2.70;;
8421;SDS011;4248;48.196;10.924;2024-02-21T00:17:54;8.13;;;2.63;;
8421;SDS011;4248;48.196;10.924;2024-02-21T00:20:19;9.57;;;2.80;;
8421;SDS011;4248;48.196;10.924;2024-02-21T00:22:45;7.57;;;2.80;;
8421;SDS011;4248;48.196;10.924;2024-02-21T00:25:12;8.30;;;2.17;;
8421;SDS011;4248;48.196;10.924;2024-02-21T00:27:38;10.60;;;3.27;;
8421;SDS011;4248;48.196;10.924;2024-02-21T00:30:04;8.27;;;2.50;;
8421;SDS011;4248;48.196;10.924;2024-02-21T00:32:30;7.50;;;2.00;;
8421;SDS011;4248;48.196;10.924;2024-02-21T00:34:57;6.13;;;2.30;;
8421;SDS011;4248;48.196;10.924;2024-02-21T00:37:23;6.73;;;2.33;;
8421;SDS011;4248;48.196;10.924;2024-02-21T00:39:48;8.80;;;2.50;;
8421;SDS011;4248;48.196;10.924;2024-02-21T00:42:14;17.03;;;2.90;;
8421;SDS011;4248;48.196;10.924;2024-02-21T00:44:40;5.73;;;2.33;;
8421;SDS011;4248;48.196;10.924;2024-02-21T00:47:05;6.20;;;2.10;;
8421;SDS011;4248;48.196;10.924;2024-02-21T00:49:31;6.40;;;2.90;;
8421;SDS011;4248;48.196;10.924;2024-02-21T00:51:57;8.53;;;2.20;;
8421;SDS011;4248;48.196;10.924;2024-02-21T00:54:22;11.83;;;2.70;;
8421;SDS011;4248;48.196;10.924;2024-02-21T00:56:48;8.70;;;3.00;;
8421;SDS011;4248;48.196;10.924;2024-02-21T00:59:14;7.10;;;2.40;;
8421;SDS011;4248;48.196;10.924;2024-02-21T01:01:39;4.83;;;2.30;;
8421;SDS011;4248;48.196;10.924;2024-02-21T01:04:07;6.83;;;2.87;;
8421;SDS011;4248;48.196;10.924;2024-02-21T01:06:34;5.40;;;2.33;;
8421;SDS011;4248;48.196;10.924;2024-02-21T01:09:00;9.10;;;2.87;;
8421;SDS011;4248;48.196;10.924;2024-02-21T01:11:25;7.30;;;2.77;;
8421;SDS011;4248;48.196;10.924;2024-02-21T01:13:51;4.80;;;2.50;;
8421;SDS011;4248;48.196;10.924;2024-02-21T01:16:17;7.20;;;2.90;;
8421;SDS011;4248;48.196;10.924;2024-02-21T01:18:42;8.00;;;2.97;;
8421;SDS011;4248;48.196;10.924;2024-02-21T01:21:08;9.77;;;2.77;;
8421;SDS011;4248;48.196;10.924;2024-02-21T01:23:35;4.77;;;2.50;;
8421;SDS011;4248;48.196;10.924;2024-02-21T01:26:02;4.87;;;2.33;;
8421;SDS011;4248;48.196;10.924;2024-02-21T01:28:28;8.90;;;2.40;;
8421;SDS011;4248;48.196;10.924;2024-02-21T01:30:54;8.70;;;2.50;;
8421;SDS011;4248;48.196;10.924;2024-02-21T01:33:20;8.97;;;3.17;;
8421;SDS011;4248;48.196;10.924;2024-02-21T01:35:46;9.10;;;2.50;;
8421;SDS011;4248;48.196;10.924;2024-02-21T01:38:12;12.03;;;2.30;;
8421;SDS011;4248;48.196;10.924;2024-02-21T01:40:38;6.40;;;2.60;;
8421;SDS011;4248;48.196;10.924;2024-02-21T01:43:14;6.40;;;2.90;;
8421;SDS011;4248;48.196;10.924;2024-02-21T01:45:49;5.80;;;2.53;;
8421;SDS011;4248;48.196;10.924;2024-02-21T01:48:19;6.20;;;2.60;;
8421;SDS011;4248;48.196;10.924;2024-02-21T01:50:46;9.77;;;2.40;;
8421;SDS011;4248;48.196;10.924;2024-02-21T01:53:14;4.70;;;2.50;;
8421;SDS011;4248;48.196;10.924;2024-02-21T01:55:44;9.13;;;2.73;;
8421;SDS011;4248;48.196;10.924;2024-02-21T01:58:13;7.10;;;2.43;;
8421;SDS011;4248;48.196;10.924;2024-02-21T02:00:43;7.70;;;2.20;;
8421;SDS011;4248;48.196;10.924;2024-02-21T02:03:11;9.47;;;2.10;;
8421;SDS011;4248;48.196;10.924;2024-02-21T02:05:42;4.97;;;2.17;;
8421;SDS011;4248;48.196;10.924;2024-02-21T02:08:15;8.93;;;2.70;;
8421;SDS011;4248;48.196;10.924;2024-02-21T02:10:42;3.90;;;2.07;;
8421;SDS011;4248;48.196;10.924;2024-02-21T02:13:08;3.70;;;2.00;;
8421;SDS011;4248;48.196;10.924;2024-02-21T02:15:45;9.03;;;1.97;;
8421;SDS011;4248;48.196;10.924;2024-02-21T02:18:13;5.93;;;2.20;;
8421;SDS011;4248;48.196;10.924;2024-02-21T02:20:40;9.53;;;2.10;;
8421;SDS011;4248;48.196;10.924;2024-02-21T02:25:50;9.63;;;2.00;;
8421;SDS011;4248;48.196;10.924;2024-02-21T02:28:19;6.67;;;2.37;;
8421;SDS011;4248;48.196;10.924;2024-02-21T02:30:45;10.83;;;2.30;;
8421;SDS011;4248;48.196;10.924;2024-02-21T02:33:12;4.67;;;2.33;;
8421;SDS011;4248;48.196;10.924;2024-02-21T02:35:38;7.50;;;2.27;;
8421;SDS011;4248;48.196;10.924;2024-02-21T02:38:04;9.50;;;2.40;;
8421;SDS011;4248;48.196;10.924;2024-02-21T02:40:30;4.90;;;2.03;;
8421;SDS011;4248;48.196;10.924;2024-02-21T02:42:59;4.20;;;1.90;;
8421;SDS011;4248;48.196;10.924;2024-02-21T02:45:25;6.90;;;1.93;;
8421;SDS011;4248;48.196;10.924;2024-02-21T02:47:54;4.87;;;2.20;;
8421;SDS011;4248;48.196;10.924;2024-02-21T02:50:23;4.57;;;2.00;;
8421;SDS011;4248;48.196;10.924;2024-02-21T02:52:50;5.17;;;1.93;;
8421;SDS011;4248;48.196;10.924;2024-02-21T02:55:16;9.47;;;2.10;;
8421;SDS011;4248;48.196;10.924;2024-02-21T02:57:41;2.30;;;1.67;;
8421;SDS011;4248;48.196;10.924;2024-02-21T03:00:08;8.00;;;1.80;;
8421;SDS011;4248;48.196;10.924;2024-02-21T03:02:37;6.23;;;1.90;;
8421;SDS011;4248;48.196;10.924;2024-02-21T03:05:11;3.20;;;1.70;;
8421;SDS011;4248;48.196;10.924;2024-02-21T03:07:38;4.83;;;1.97;;
8421;SDS011;4248;48.196;10.924;2024-02-21T03:10:05;6.33;;;2.10;;
8421;SDS011;4248;48.196;10.924;2024-02-21T03:12:34;8.57;;;2.03;;
8421;SDS011;4248;48.196;10.924;2024-02-21T03:15:00;9.80;;;2.20;;
8421;SDS011;4248;48.196;10.924;2024-02-21T03:17:25;5.10;;;1.77;;
8421;SDS011;4248;48.196;10.924;2024-02-21T03:19:54;6.60;;;1.97;;
8421;SDS011;4248;48.196;10.924;2024-02-21T03:22:23;3.70;;;1.40;;
8421;SDS011;4248;48.196;10.924;2024-02-21T03:24:49;3.00;;;1.63;;
8421;SDS011;4248;48.196;10.924;2024-02-21T03:27:15;3.80;;;1.60;;
8421;SDS011;4248;48.196;10.924;2024-02-21T03:29:40;3.10;;;1.53;;
8421;SDS011;4248;48.196;10.924;2024-02-21T03:32:06;5.10;;;1.70;;
8421;SDS011;4248;48.196;10.924;2024-02-21T03:34:32;3.33;;;1.37;;
8421;SDS011;4248;48.196;10.924;2024-02-21T03:36:57;6.57;;;2.27;;
8421;SDS011;4248;48.196;10.924;2024-02-21T03:39:24;5.53;;;1.53;;
8421;SDS011;4248;48.196;10.924;2024-02-21T03:41:49;4.10;;;1.70;;
8421;SDS011;4248;48.196;10.924;2024-02-21T03:44:16;5.00;;;1.80;;
8421;SDS011;4248;48.196;10.924;2024-02-21T03:46:42;9.43;;;1.43;;
8421;SDS011;4248;48.196;10.924;2024-02-21T03:49:08;3.87;;;1.53;;
8421;SDS011;4248;48.196;10.924;2024-02-21T03:51:33;3.90;;;1.50;;
8421;SDS011;4248;48.196;10.924;2024-02-21T03:53:59;5.77;;;1.70;;
8421;SDS011;4248;48.196;10.924;2024-02-21T03:56:25;5.83;;;1.50;;
8421;SDS011;4248;48.196;10.924;2024-02-21T03:58:50;3.00;;;1.40;;
8421;SDS011;4248;48.196;10.924;2024-02-21T04:01:16;4.77;;;1.40;;
8421;SDS011;4248;48.196;10.924;2024-02-21T04:03:43;4.37;;;1.60;;
8421;SDS011;4248;48.196;10.924;2024-02-21T04:06:09;5.97;;;1.60;;
8421;SDS011;4248;48.196;10.924;2024-02-21T04:08:35;5.17;;;1.57;;
8421;SDS011;4248;48.196;10.924;2024-02-21T04:11:00;4.60;;;1.43;;
8421;SDS011;4248;48.196;10.924;2024-02-21T04:13:26;3.13;;;1.40;;
8421;SDS011;4248;48.196;10.924;2024-02-21T04:15:52;6.23;;;1.50;;
8421;SDS011;4248;48.196;10.924;2024-02-21T04:18:17;5.40;;;1.60;;
8421;SDS011;4248;48.196;10.924;2024-02-21T04:20:43;2.80;;;1.50;;
8421;SDS011;4248;48.196;10.924;2024-02-21T04:23:09;3.80;;;1.33;;
8421;SDS011;4248;48.196;10.924;2024-02-21T04:25:35;4.23;;;1.50;;
8421;SDS011;4248;48.196;10.924;2024-02-21T04:28:01;3.60;;;1.60;;
8421;SDS011;4248;48.196;10.924;2024-02-21T04:30:27;6.80;;;1.40;;
8421;SDS011;4248;48.196;10.924;2024-02-21T04:32:52;2.97;;;1.30;;
8421;SDS011;4248;48.196;10.924;2024-02-21T04:35:18;4.60;;;1.50;;
8421;SDS011;4248;48.196;10.924;2024-02-21T04:37:44;4.23;;;1.40;;
8421;SDS011;4248;48.196;10.924;2024-02-21T04:40:10;3.83;;;1.50;;
8421;SDS011;4248;48.196;10.924;2024-02-21T04:42:36;2.20;;;1.10;;
8421;SDS011;4248;48.196;10.924;2024-02-21T04:45:01;8.27;;;1.17;;
8421;SDS011;4248;48.196;10.924;2024-02-21T04:47:27;3.57;;;1.17;;
8421;SDS011;4248;48.196;10.924;2024-02-21T04:49:53;2.47;;;1.00;;
8421;SDS011;4248;48.196;10.924;2024-02-21T04:52:19;3.50;;;1.70;;
8421;SDS011;4248;48.196;10.924;2024-02-21T04:54:45;3.70;;;1.83;;
8421;SDS011;4248;48.196;10.924;2024-02-21T04:57:10;4.50;;;1.33;;
8421;SDS011;4248;48.196;10.924;2024-02-21T04:59:36;4.03;;;1.50;;
8421;SDS011;4248;48.196;10.924;2024-02-21T05:02:02;6.60;;;1.63;;
8421;SDS011;4248;48.196;10.924;2024-02-21T05:04:28;4.13;;;1.60;;
8421;SDS011;4248;48.196;10.924;2024-02-21T05:06:54;7.27;;;1.60;;
8421;SDS011;4248;48.196;10.924;2024-02-21T05:09:19;4.00;;;1.40;;
8421;SDS011;4248;48.196;10.924;2024-02-21T05:11:45;2.47;;;1.30;;
8421;SDS011;4248;48.196;10.924;2024-02-21T05:14:11;2.57;;;1.20;;
8421;SDS011;4248;48.196;10.924;2024-02-21T05:16:38;3.13;;;1.30;;
8421;SDS011;4248;48.196;10.924;2024-02-21T05:19:04;3.27;;;1.40;;
8421;SDS011;4248;48.196;10.924;2024-02-21T05:21:30;5.73;;;2.00;;
8421;SDS011;4248;48.196;10.924;2024-02-21T05:23:56;3.30;;;1.30;;
8421;SDS011;4248;48.196;10.924;2024-02-21T05:26:22;2.17;;;1.40;;
8421;SDS011;4248;48.196;10.924;2024-02-21T05:28:49;4.00;;;1.40;;
8421;SDS011;4248;48.196;10.924;2024-02-21T05:31:17;2.08;;;1.10;;
8421;SDS011;4248;48.196;10.924;2024-02-21T05:33:44;3.00;;;1.27;;
8421;SDS011;4248;48.196;10.924;2024-02-21T05:36:10;1.90;;;1.13;;
8421;SDS011;4248;48.196;10.924;2024-02-21T05:38:37;5.57;;;1.50;;
8421;SDS011;4248;48.196;10.924;2024-02-21T05:41:03;5.03;;;1.30;;
8421;SDS011;4248;48.196;10.924;2024-02-21T05:43:29;2.77;;;1.40;;
8421;SDS011;4248;48.196;10.924;2024-02-21T05:45:54;2.10;;;1.33;;
8421;SDS011;4248;48.196;10.924;2024-02-21T05:48:21;2.40;;;1.30;;
8421;SDS011;4248;48.196;10.924;2024-02-21T05:50:47;2.93;;;1.23;;
8421;SDS011;4248;48.196;10.924;2024-02-21T05:53:13;2.10;;;1.20;;
8421;SDS011;4248;48.196;10.924;2024-02-21T05:55:39;15.50;;;6.30;;
8421;SDS011;4248;48.196;10.924;2024-02-21T05:58:05;20.03;;;7.37;;
8421;SDS011;4248;48.196;10.924;2024-02-21T06:00:31;25.90;;;10.90;;
8421;SDS011;4248;48.196;10.924;2024-02-21T06:02:57;28.93;;;11.07;;
8421;SDS011;4248;48.196;10.924;2024-02-21T06:05:23;16.30;;;7.37;;
8421;SDS011;4248;48.196;10.924;2024-02-21T06:07:49;6.47;;;2.70;;
8421;SDS011;4248;48.196;10.924;2024-02-21T06:10:14;3.60;;;2.07;;
8421;SDS011;4248;48.196;10.924;2024-02-21T06:12:43;4.90;;;1.90;;
8421;SDS011;4248;48.196;10.924;2024-02-21T06:15:09;3.30;;;1.40;;
8421;SDS011;4248;48.196;10.924;2024-02-21T06:17:35;6.10;;;2.30;;
8421;SDS011;4248;48.196;10.924;2024-02-21T06:20:00;4.70;;;1.93;;
8421;SDS011;4248;48.196;10.924;2024-02-21T06:22:26;4.03;;;1.67;;
8421;SDS011;4248;48.196;10.924;2024-02-21T06:24:52;3.67;;;1.50;;
8421;SDS011;4248;48.196;10.924;2024-02-21T06:27:19;4.30;;;2.57;;
8421;SDS011;4248;48.196;10.924;2024-02-21T06:29:45;2.97;;;2.00;;
8421;SDS011;4248;48.196;10.924;2024-02-21T06:32:10;2.97;;;1.67;;
8421;SDS011;4248;48.196;10.924;2024-02-21T06:34:36;4.43;;;2.00;;
8421;SDS011;4248;48.196;10.924;2024-02-21T06:37:02;3.83;;;1.60;;
8421;SDS011;4248;48.196;10.924;2024-02-21T06:39:27;2.33;;;1.40;;
8421;SDS011;4248;48.196;10.924;2024-02-21T06:41:54;14.07;;;5.73;;
8421;SDS011;4248;48.196;10.924;2024-02-21T06:44:20;10.33;;;4.17;;
8421;SDS011;4248;48.196;10.924;2024-02-21T06:46:46;6.00;;;3.47;;
8421;SDS011;4248;48.196;10.924;2024-02-21T06:49:12;5.47;;;3.43;;
8421;SDS011;4248;48.196;10.924;2024-02-21T06:51:44;2.50;;;1.43;;
8421;SDS011;4248;48.196;10.924;2024-02-21T06:54:10;2.50;;;1.77;;
8421;SDS011;4248;48.196;10.924;2024-02-21T06:56:36;3.53;;;1.50;;
8421;SDS011;4248;48.196;10.924;2024-02-21T06:59:02;3.90;;;1.70;;
8421;SDS011;4248;48.196;10.924;2024-02-21T07:01:29;6.23;;;1.33;;
8421;SDS011;4248;48.196;10.924;2024-02-21T07:03:55;3.60;;;1.70;;
8421;SDS011;4248;48.196;10.924;2024-02-21T07:06:21;4.87;;;1.50;;
8421;SDS011;4248;48.196;10.924;2024-02-21T07:08:47;4.97;;;1.40;;
8421;SDS011;4248;48.196;10.924;2024-02-21T07:11:13;3.27;;;1.20;;
8421;SDS011;4248;48.196;10.924;2024-02-21T07:13:39;2.67;;;1.30;;
8421;SDS011;4248;48.196;10.924;2024-02-21T07:16:04;3.80;;;1.20;;
8421;SDS011;4248;48.196;10.924;2024-02-21T07:18:31;3.40;;;1.33;;
8421;SDS011;4248;48.196;10.924;2024-02-21T07:20:57;3.53;;;1.30;;
8421;SDS011;4248;48.196;10.924;2024-02-21T07:23:23;2.30;;;0.97;;
8421;SDS011;4248;48.196;10.924;2024-02-21T07:25:49;4.80;;;1.10;;
8421;SDS011;4248;48.196;10.924;2024-02-21T07:28:14;3.70;;;1.27;;
8421;SDS011;4248;48.196;10.924;2024-02-21T07:30:41;4.23;;;1.27;;
8421;SDS011;4248;48.196;10.924;2024-02-21T07:33:07;3.43;;;1.23;;
8421;SDS011;4248;48.196;10.924;2024-02-21T07:35:33;4.00;;;1.80;;
8421;SDS011;4248;48.196;10.924;2024-02-21T07:37:58;13.00;;;4.87;;
8421;SDS011;4248;48.196;10.924;2024-02-21T07:40:24;10.53;;;4.30;;
8421;SDS011;4248;48.196;10.924;2024-02-21T07:42:50;3.53;;;1.70;;
8421;SDS011;4248;48.196;10.924;2024-02-21T07:45:15;3.40;;;1.47;;
8421;SDS011;4248;48.196;10.924;2024-02-21T07:47:43;6.80;;;1.50;;
8421;SDS011;4248;48.196;10.924;2024-02-21T07:50:09;7.43;;;1.47;;
8421;SDS011;4248;48.196;10.924;2024-02-21T07:52:35;7.80;;;3.13;;
8421;SDS011;4248;48.196;10.924;2024-02-21T07:55:00;9.10;;;3.13;;
8421;SDS011;4248;48.196;10.924;2024-02-21T07:57:29;6.70;;;4.00;;
8421;SDS011;4248;48.196;10.924;2024-02-21T07:59:55;5.83;;;2.27;;
8421;SDS011;4248;48.196;10.924;2024-02-21T08:02:21;5.87;;;1.60;;
8421;SDS011;4248;48.196;10.924;2024-02-21T08:04:46;4.57;;;1.80;;
8421;SDS011;4248;48.196;10.924;2024-02-21T08:07:12;2.10;;;1.30;;
8421;SDS011;4248;48.196;10.924;2024-02-21T08:09:39;3.33;;;1.60;;
8421;SDS011;4248;48.196;10.924;2024-02-21T08:12:05;3.77;;;1.60;;
8421;SDS011;4248;48.196;10.924;2024-02-21T08:14:31;3.40;;;1.40;;
8421;SDS011;4248;48.196;10.924;2024-02-21T08:16:57;3.03;;;1.80;;
8421;SDS011;4248;48.196;10.924;2024-02-21T08:19:22;5.03;;;2.30;;
8421;SDS011;4248;48.196;10.924;2024-02-21T08:21:48;5.83;;;2.20;;
8421;SDS011;4248;48.196;10.924;2024-02-21T08:24:17;10.20;;;3.87;;
8421;SDS011;4248;48.196;10.924;2024-02-21T08:26:43;6.07;;;3.03;;
8421;SDS011;4248;48.196;10.924;2024-02-21T08:29:12;5.00;;;1.90;;
8421;SDS011;4248;48.196;10.924;2024-02-21T08:31:38;2.03;;;0.90;;
8421;SDS011;4248;48.196;10.924;2024-02-21T08:34:04;4.50;;;1.90;;
8421;SDS011;4248;48.196;10.924;2024-02-21T08:36:33;3.23;;;1.47;;
8421;SDS011;4248;48.196;10.924;2024-02-21T08:39:00;3.33;;;1.20;;
8421;SDS011;4248;48.196;10.924;2024-02-21T08:41:30;2.83;;;1.00;;
8421;SDS011;4248;48.196;10.924;2024-02-21T08:43:56;4.93;;;1.10;;
8421;SDS011;4248;48.196;10.924;2024-02-21T08:46:22;2.13;;;0.83;;
8421;SDS011;4248;48.196;10.924;2024-02-21T08:48:49;2.43;;;1.00;;
8421;SDS011;4248;48.196;10.924;2024-02-21T08:51:16;2.00;;;0.90;;
8421;SDS011;4248;48.196;10.924;2024-02-21T08:53:43;1.50;;;0.87;;
8421;SDS011;4248;48.196;10.924;2024-02-21T08:56:10;1.80;;;0.90;;
8421;SDS011;4248;48.196;10.924;2024-02-21T08:58:36;2.47;;;0.80;;
8421;SDS011;4248;48.196;10.924;2024-02-21T09:01:02;2.17;;;1.00;;
8421;SDS011;4248;48.196;10.924;2024-02-21T09:03:32;5.37;;;1.00;;
8421;SDS011;4248;48.196;10.924;2024-02-21T09:05:58;3.43;;;0.90;;
8421;SDS011;4248;48.196;10.924;2024-02-21T09:08:25;1.40;;;0.80;;
8421;SDS011;4248;48.196;10.924;2024-02-21T09:10:51;2.67;;;1.17;;
8421;SDS011;4248;48.196;10.924;2024-02-21T09:13:17;2.03;;;0.80;;
8421;SDS011;4248;48.196;10.924;2024-02-21T09:15:42;2.00;;;1.00;;
8421;SDS011;4248;48.196;10.924;2024-02-21T09:18:09;4.43;;;0.90;;
8421;SDS011;4248;48.196;10.924;2024-02-21T09:20:34;1.90;;;1.07;;
8421;SDS011;4248;48.196;10.924;2024-02-21T09:23:00;3.67;;;1.03;;
8421;SDS011;4248;48.196;10.924;2024-02-21T09:25:26;4.23;;;0.97;;
8421;SDS011;4248;48.196;10.924;2024-02-21T09:27:53;4.43;;;1.10;;
8421;SDS011;4248;48.196;10.924;2024-02-21T09:30:19;1.60;;;0.80;;
8421;SDS011;4248;48.196;10.924;2024-02-21T09:32:45;2.10;;;0.90;;
8421;SDS011;4248;48.196;10.924;2024-02-21T09:35:11;4.40;;;0.90;;
8421;SDS011;4248;48.196;10.924;2024-02-21T09:37:37;3.57;;;1.77;;
8421;SDS011;4248;48.196;10.924;2024-02-21T09:40:04;2.73;;;1.10;;
8421;SDS011;4248;48.196;10.924;2024-02-21T09:42:36;3.90;;;0.90;;
8421;SDS011;4248;48.196;10.924;2024-02-21T09:45:06;1.80;;;0.80;;
8421;SDS011;4248;48.196;10.924;2024-02-21T09:50:36;1.97;;;1.10;;
8421;SDS011;4248;48.196;10.924;2024-02-21T09:53:08;2.27;;;0.97;;
8421;SDS011;4248;48.196;10.924;2024-02-21T09:55:37;1.90;;;1.10;;
8421;SDS011;4248;48.196;10.924;2024-02-21T09:58:06;2.13;;;0.90;;
8421;SDS011;4248;48.196;10.924;2024-02-21T10:00:33;2.30;;;1.20;;
8421;SDS011;4248;48.196;10.924;2024-02-21T10:02:59;3.43;;;1.13;;
8421;SDS011;4248;48.196;10.924;2024-02-21T10:05:24;2.93;;;0.97;;
8421;SDS011;4248;48.196;10.924;2024-02-21T10:07:52;2.53;;;1.10;;
8421;SDS011;4248;48.196;10.924;2024-02-21T10:10:18;8.13;;;1.20;;
8421;SDS011;4248;48.196;10.924;2024-02-21T10:12:53;3.57;;;1.60;;
8421;SDS011;4248;48.196;10.924;2024-02-21T10:15:23;4.30;;;1.10;;
8421;SDS011;4248;48.196;10.924;2024-02-21T10:17:57;2.13;;;1.00;;
8421;SDS011;4248;48.196;10.924;2024-02-21T10:20:24;2.07;;;1.10;;
8421;SDS011;4248;48.196;10.924;2024-02-21T10:22:59;2.60;;;1.20;;
8421;SDS011;4248;48.196;10.924;2024-02-21T10:25:27;3.47;;;1.23;;
8421;SDS011;4248;48.196;10.924;2024-02-21T10:27:52;2.70;;;1.00;;
8421;SDS011;4248;48.196;10.924;2024-02-21T10:30:18;2.73;;;1.10;;
8421;SDS011;4248;48.196;10.924;2024-02-21T10:32:52;2.00;;;0.87;;
8421;SDS011;4248;48.196;10.924;2024-02-21T10:35:29;3.17;;;1.00;;
8421;SDS011;4248;48.196;10.924;2024-02-21T10:37:58;3.73;;;1.50;;
8421;SDS011;4248;48.196;10.924;2024-02-21T10:40:28;2.30;;;1.13;;
8421;SDS011;4248;48.196;10.924;2024-02-21T10:45:31;3.03;;;1.00;;
8421;SDS011;4248;48.196;10.924;2024-02-21T10:48:10;2.40;;;0.87;;
8421;SDS011;4248;48.196;10.924;2024-02-21T10:53:19;2.03;;;0.80;;
8421;SDS011;4248;48.196;10.924;2024-02-21T10:59:01;2.20;;;0.80;;
8421;SDS011;4248;48.196;10.924;2024-02-21T11:01:28;3.30;;;1.10;;
8421;SDS011;4248;48.196;10.924;2024-02-21T11:03:57;2.63;;;1.20;;
8421;SDS011;4248;48.196;10.924;2024-02-21T11:06:26;2.10;;;1.00;;
8421;SDS011;4248;48.196;10.924;2024-02-21T11:09:06;2.53;;;0.97;;
8421;SDS011;4248;48.196;10.924;2024-02-21T11:11:34;1.80;;;0.80;;
8421;SDS011;4248;48.196;10.924;2024-02-21T11:14:04;1.63;;;0.73;;
8421;SDS011;4248;48.196;10.924;2024-02-21T11:16:35;2.10;;;0.80;;
8421;SDS011;4248;48.196;10.924;2024-02-21T11:21:50;2.30;;;0.90;;
8421;SDS011;4248;48.196;10.924;2024-02-21T11:24:27;3.20;;;0.90;;
8421;SDS011;4248;48.196;10.924;2024-02-21T11:27:09;2.00;;;0.80;;
8421;SDS011;4248;48.196;10.924;2024-02-21T11:29:53;2.00;;;0.83;;
8421;SDS011;4248;48.196;10.924;2024-02-21T11:32:21;1.73;;;0.80;;
8421;SDS011;4248;48.196;10.924;2024-02-21T11:34:57;1.90;;;0.80;;
8421;SDS011;4248;48.196;10.924;2024-02-21T11:37:28;2.27;;;0.90;;
8421;SDS011;4248;48.196;10.924;2024-02-21T11:39:54;2.37;;;0.80;;
8421;SDS011;4248;48.196;10.924;2024-02-21T11:42:21;2.10;;;0.87;;
8421;SDS011;4248;48.196;10.924;2024-02-21T11:44:47;5.87;;;0.90;;
8421;SDS011;4248;48.196;10.924;2024-02-21T11:47:14;2.53;;;0.87;;
8421;SDS011;4248;48.196;10.924;2024-02-21T11:49:46;3.03;;;0.80;;
8421;SDS011;4248;48.196;10.924;2024-02-21T11:52:18;2.10;;;0.90;;
8421;SDS011;4248;48.196;10.924;2024-02-21T11:54:48;1.60;;;0.70;;
8421;SDS011;4248;48.196;10.924;2024-02-21T11:57:14;2.73;;;0.90;;
8421;SDS011;4248;48.196;10.924;2024-02-21T11:59:40;2.47;;;0.80;;
8421;SDS011;4248;48.196;10.924;2024-02-21T12:02:06;2.70;;;1.10;;
8421;SDS011;4248;48.196;10.924;2024-02-21T12:04:32;6.53;;;0.77;;
8421;SDS011;4248;48.196;10.924;2024-02-21T12:07:01;2.30;;;0.80;;
8421;SDS011;4248;48.196;10.924;2024-02-21T12:09:29;2.80;;;0.70;;
8421;SDS011;4248;48.196;10.924;2024-02-21T12:11:58;1.83;;;0.80;;
8421;SDS011;4248;48.196;10.924;2024-02-21T12:14:26;1.70;;;0.80;;
8421;SDS011;4248;48.196;10.924;2024-02-21T12:16:53;2.07;;;0.80;;
8421;SDS011;4248;48.196;10.924;2024-02-21T12:19:19;3.10;;;1.00;;
8421;SDS011;4248;48.196;10.924;2024-02-21T12:21:45;2.07;;;0.83;;
8421;SDS011;4248;48.196;10.924;2024-02-21T12:24:15;3.47;;;1.00;;
8421;SDS011;4248;48.196;10.924;2024-02-21T12:26:48;2.30;;;0.90;;
8421;SDS011;4248;48.196;10.924;2024-02-21T12:29:14;3.07;;;1.00;;
8421;SDS011;4248;48.196;10.924;2024-02-21T12:31:40;1.77;;;0.80;;
8421;SDS011;4248;48.196;10.924;2024-02-21T12:34:06;2.13;;;0.80;;
8421;SDS011;4248;48.196;10.924;2024-02-21T12:36:35;2.30;;;0.83;;
8421;SDS011;4248;48.196;10.924;2024-02-21T12:39:05;2.03;;;0.83;;
8421;SDS011;4248;48.196;10.924;2024-02-21T12:41:31;2.43;;;1.10;;
8421;SDS011;4248;48.196;10.924;2024-02-21T12:43:58;2.90;;;0.97;;
8421;SDS011;4248;48.196;10.924;2024-02-21T12:46:23;3.00;;;0.90;;
8421;SDS011;4248;48.196;10.924;2024-02-21T12:48:49;2.00;;;0.80;;
8421;SDS011;4248;48.196;10.924;2024-02-21T12:51:15;3.80;;;0.80;;
8421;SDS011;4248;48.196;10.924;2024-02-21T12:53:45;2.33;;;0.83;;
8421;SDS011;4248;48.196;10.924;2024-02-21T12:56:15;2.30;;;0.80;;
8421;SDS011;4248;48.196;10.924;2024-02-21T12:58:41;2.43;;;0.80;;
8421;SDS011;4248;48.196;10.924;2024-02-21T13:01:07;3.87;;;1.03;;
8421;SDS011;4248;48.196;10.924;2024-02-21T13:03:33;1.63;;;0.70;;
8421;SDS011;4248;48.196;10.924;2024-02-21T13:05:58;5.50;;;1.27;;
8421;SDS011;4248;48.196;10.924;2024-02-21T13:08:24;2.70;;;1.03;;
8421;SDS011;4248;48.196;10.924;2024-02-21T13:10:50;2.00;;;1.00;;
8421;SDS011;4248;48.196;10.924;2024-02-21T13:13:16;2.27;;;0.80;;
8421;SDS011;4248;48.196;10.924;2024-02-21T13:15:41;2.23;;;0.80;;
8421;SDS011;4248;48.196;10.924;2024-02-21T13:18:08;1.77;;;0.80;;
8421;SDS011;4248;48.196;10.924;2024-02-21T13:20:34;2.97;;;0.87;;
8421;SDS011;4248;48.196;10.924;2024-02-21T13:23:00;2.07;;;0.80;;
8421;SDS011;4248;48.196;10.924;2024-02-21T13:25:26;1.70;;;0.80;;
8421;SDS011;4248;48.196;10.924;2024-02-21T13:27:51;2.13;;;0.90;;
8421;SDS011;4248;48.196;10.924;2024-02-21T13:30:17;2.77;;;0.80;;
8421;SDS011;4248;48.196;10.924;2024-02-21T13:32:43;1.70;;;0.80;;
8421;SDS011;4248;48.196;10.924;2024-02-21T13:35:11;2.70;;;0.80;;
8421;SDS011;4248;48.196;10.924;2024-02-21T13:37:40;2.23;;;0.90;;
8421;SDS011;4248;48.196;10.924;2024-02-21T13:40:10;1.90;;;0.70;;
8421;SDS011;4248;48.196;10.924;2024-02-21T13:42:36;3.17;;;0.90;;
8421;SDS011;4248;48.196;10.924;2024-02-21T13:45:03;6.33;;;0.90;;
8421;SDS011;4248;48.196;10.924;2024-02-21T13:47:35;2.37;;;1.00;;
8421;SDS011;4248;48.196;10.924;2024-02-21T13:50:06;1.83;;;0.87;;
8421;SDS011;4248;48.196;10.924;2024-02-21T13:52:38;2.43;;;0.70;;
8421;SDS011;4248;48.196;10.924;2024-02-21T13:55:04;2.30;;;0.73;;
8421;SDS011;4248;48.196;10.924;2024-02-21T13:57:33;2.40;;;0.90;;
8421;SDS011;4248;48.196;10.924;2024-02-21T13:59:59;1.90;;;0.80;;
8421;SDS011;4248;48.196;10.924;2024-02-21T14:02:25;2.03;;;0.70;;
8421;SDS011;4248;48.196;10.924;2024-02-21T14:04:51;1.70;;;0.70;;
8421;SDS011;4248;48.196;10.924;2024-02-21T14:07:16;1.80;;;0.70;;
8421;SDS011;4248;48.196;10.924;2024-02-21T14:09:42;3.03;;;0.80;;
8421;SDS011;4248;48.196;10.924;2024-02-21T14:12:08;1.70;;;0.63;;
8421;SDS011;4248;48.196;10.924;2024-02-21T14:14:34;1.83;;;0.77;;
8421;SDS011;4248;48.196;10.924;2024-02-21T14:17:01;1.97;;;0.80;;
8421;SDS011;4248;48.196;10.924;2024-02-21T14:19:28;2.00;;;0.80;;
8421;SDS011;4248;48.196;10.924;2024-02-21T14:21:54;1.80;;;0.70;;
8421;SDS011;4248;48.196;10.924;2024-02-21T14:24:21;1.90;;;0.73;;
8421;SDS011;4248;48.196;10.924;2024-02-21T14:26:47;1.60;;;0.70;;
8421;SDS011;4248;48.196;10.924;2024-02-21T14:29:14;1.90;;;0.80;;
8421;SDS011;4248;48.196;10.924;2024-02-21T14:31:39;2.83;;;0.80;;
8421;SDS011;4248;48.196;10.924;2024-02-21T14:34:05;1.80;;;0.73;;
8421;SDS011;4248;48.196;10.924;2024-02-21T14:36:32;3.63;;;0.87;;
8421;SDS011;4248;48.196;10.924;2024-02-21T14:38:58;1.60;;;0.70;;
8421;SDS011;4248;48.196;10.924;2024-02-21T14:41:24;2.53;;;0.90;;
8421;SDS011;4248;48.196;10.924;2024-02-21T14:43:50;3.70;;;0.80;;
8421;SDS011;4248;48.196;10.924;2024-02-21T14:46:16;2.10;;;0.90;;
8421;SDS011;4248;48.196;10.924;2024-02-21T14:48:42;1.90;;;0.80;;
8421;SDS011;4248;48.196;10.924;2024-02-21T14:51:11;2.23;;;0.80;;
8421;SDS011;4248;48.196;10.924;2024-02-21T14:53:37;3.83;;;1.00;;
8421;SDS011;4248;48.196;10.924;2024-02-21T14:56:03;2.13;;;0.90;;
8421;SDS011;4248;48.196;10.924;2024-02-21T14:58:28;2.57;;;1.03;;
8421;SDS011;4248;48.196;10.924;2024-02-21T15:00:56;2.40;;;0.97;;
8421;SDS011;4248;48.196;10.924;2024-02-21T15:03:21;2.13;;;0.87;;
8421;SDS011;4248;48.196;10.924;2024-02-21T15:05:49;2.93;;;0.90;;
8421;SDS011;4248;48.196;10.924;2024-02-21T15:08:22;2.87;;;0.90;;
8421;SDS011;4248;48.196;10.924;2024-02-21T15:10:48;2.87;;;0.90;;
8421;SDS011;4248;48.196;10.924;2024-02-21T15:13:15;2.80;;;0.93;;
8421;SDS011;4248;48.196;10.924;2024-02-21T15:15:41;2.87;;;1.00;;